createdAt,value
2018-10-11T00:00:24.204Z,102411.42
2018-10-11T00:03:22.376Z,102413.61
2018-10-11T00:06:20.396Z,102411.89
2018-10-11T00:09:19.352Z,102407.86
2018-10-11T00:12:17.347Z,102408.33
2018-10-11T00:15:15.367Z,102407.39
2018-10-11T00:18:13.248Z,102414.11
2018-10-11T00:21:11.240Z,102409.20
2018-10-11T00:24:08.997Z,102411.89
2018-10-11T00:27:07.013Z,102413.71
2018-10-11T00:30:05.277Z,102419.49
2018-10-11T00:33:03.688Z,102421.31
2018-10-11T00:36:01.639Z,102428.91
2018-10-11T00:39:00.214Z,102417.27
2018-10-11T00:41:58.694Z,102418.14
2018-10-11T00:44:56.830Z,102411.89
2018-10-11T00:47:55.239Z,102413.71
2018-10-11T00:50:53.459Z,102410.08
2018-10-11T00:53:51.884Z,102413.23
2018-10-11T00:56:50.983Z,102416.30
2018-10-11T00:59:48.921Z,102414.59
2018-10-11T01:02:46.862Z,102415.92
2018-10-11T01:05:44.832Z,102421.31
2018-10-11T01:08:42.829Z,102411.49
2018-10-11T01:11:40.991Z,102417.27
2018-10-11T01:14:39.107Z,102419.19
2018-10-11T01:17:37.233Z,102419.19
2018-10-11T01:20:35.714Z,102429.45
2018-10-11T01:23:34.715Z,102430.89
2018-10-11T01:26:32.675Z,102428.20
2018-10-11T01:29:30.665Z,102438.96
2018-10-11T01:32:29.936Z,102429.15
2018-10-11T01:35:27.827Z,102433.66
2018-10-11T01:38:26.018Z,102435.50
2018-10-11T01:41:24.189Z,102430.13
2018-10-11T01:44:22.630Z,102433.28
2018-10-11T01:47:20.551Z,102431.07
2018-10-11T01:50:19.225Z,102428.85
2018-10-11T01:53:17.030Z,102428.85
2018-10-11T01:56:16.420Z,102427.98
2018-10-11T01:59:15.414Z,102432.88
2018-10-11T02:02:13.748Z,102424.45
2018-10-11T02:05:11.671Z,102433.86
2018-10-11T02:08:09.700Z,102432.52
2018-10-11T02:11:07.426Z,102433.86
2018-10-11T02:14:05.370Z,102424.45
2018-10-11T02:17:04.099Z,102429.83
2018-10-11T02:20:03.083Z,102436.05
2018-10-11T02:23:01.163Z,102444.11
2018-10-11T02:25:59.345Z,102437.49
2018-10-11T02:28:57.392Z,102441.93
2018-10-11T02:31:55.415Z,102431.17
2018-10-11T02:34:53.252Z,102436.05
2018-10-11T02:37:51.514Z,102438.73
2018-10-11T02:40:49.542Z,102435.20
2018-10-11T02:43:48.140Z,102436.05
2018-10-11T02:46:46.463Z,102435.20
2018-10-11T02:49:44.452Z,102431.64
2018-10-11T02:52:42.471Z,102434.33
2018-10-11T02:55:47.937Z,102434.33
2018-10-11T02:58:58.726Z,102431.72
2018-10-11T03:01:57.893Z,102428.19
2018-10-11T03:04:57.960Z,102431.34
2018-10-11T03:07:56.243Z,102428.66
2018-10-11T03:10:55.053Z,102433.56
2018-10-11T03:13:53.117Z,102431.81
2018-10-11T03:16:50.821Z,102431.41
2018-10-11T03:19:50.181Z,102431.41
2018-10-11T03:22:48.294Z,102435.45
2018-10-11T03:25:47.816Z,102441.41
2018-10-11T03:28:45.721Z,102439.11
2018-10-11T03:31:44.081Z,102435.08
2018-10-11T03:34:42.117Z,102438.24
2018-10-11T03:37:40.879Z,102436.02
2018-10-11T03:40:38.765Z,102443.22
2018-10-11T03:43:37.343Z,102440.05
2018-10-11T03:46:35.378Z,102437.84
2018-10-11T03:49:34.853Z,102438.71
2018-10-11T03:52:33.920Z,102443.72
2018-10-11T03:55:32.366Z,102440.53
2018-10-11T03:58:30.413Z,102439.69
2018-10-11T04:01:28.322Z,102442.38
2018-10-11T04:04:26.154Z,102447.75
2018-10-11T04:07:24.296Z,102445.44
2018-10-11T04:10:22.396Z,102444.56
2018-10-11T04:13:21.619Z,102448.59
2018-10-11T04:16:19.425Z,102449.94
2018-10-11T04:19:17.473Z,102445.91
2018-10-11T04:22:15.485Z,102451.28
2018-10-11T04:25:13.669Z,102450.34
2018-10-11T04:28:11.470Z,102448.13
2018-10-11T04:31:09.782Z,102441.88
2018-10-11T04:34:07.622Z,102453.03
2018-10-11T04:37:05.736Z,102447.25
2018-10-11T04:40:03.657Z,102444.66
2018-10-11T04:43:02.085Z,102449.57
2018-10-11T04:45:59.954Z,102447.75
2018-10-11T04:48:59.308Z,102450.45
2018-10-11T04:51:57.385Z,102447.35
2018-10-11T04:54:55.721Z,102448.70
2018-10-11T04:57:53.761Z,102450.04
2018-10-11T05:00:52.254Z,102440.73
2018-10-11T05:03:50.334Z,102448.80
2018-10-11T05:06:48.834Z,102450.98
2018-10-11T05:09:47.216Z,102451.96
2018-10-11T05:12:45.362Z,102450.98
2018-10-11T05:15:44.177Z,102446.11
2018-10-11T05:18:43.248Z,102452.83
2018-10-11T05:21:41.227Z,102452.33
2018-10-11T05:24:39.429Z,102459.05
2018-10-11T05:27:37.337Z,102457.23
2018-10-11T05:30:35.517Z,102458.11
2018-10-11T05:33:34.481Z,102461.27
2018-10-11T05:36:33.408Z,102456.36
2018-10-11T05:39:31.314Z,102457.16
2018-10-11T05:42:29.557Z,102462.61
2018-10-11T05:45:30.627Z,102463.02
2018-10-11T05:48:28.961Z,102459.05
2018-10-11T05:51:26.969Z,102463.02
2018-10-11T05:54:27.437Z,102463.95
2018-10-11T05:57:25.512Z,102470.11
2018-10-11T06:00:25.052Z,102475.69
2018-10-11T06:03:23.923Z,102488.56
2018-10-11T06:06:23.383Z,102483.19
2018-10-11T06:09:22.392Z,102494.30
2018-10-11T06:12:20.530Z,102495.75
2018-10-11T06:15:19.261Z,102498.74
2018-10-11T06:18:17.478Z,102498.44
2018-10-11T06:21:15.564Z,102502.00
2018-10-11T06:24:13.795Z,102511.78
2018-10-11T06:27:11.629Z,102501.91
2018-10-11T06:30:09.927Z,102510.95
2018-10-11T06:33:08.645Z,102511.78
2018-10-11T06:36:07.855Z,102514.98
2018-10-11T06:39:07.548Z,102520.36
2018-10-11T06:42:05.617Z,102521.70
2018-10-11T06:45:04.582Z,102515.81
2018-10-11T06:48:05.604Z,102521.70
2018-10-11T06:51:04.499Z,102516.33
2018-10-11T06:54:02.824Z,102523.05
2018-10-11T06:57:01.849Z,102523.98
2018-10-11T07:00:01.117Z,102525.33
2018-10-11T07:02:59.892Z,102528.42
2018-10-11T07:05:58.554Z,102529.77
2018-10-11T07:08:56.561Z,102525.33
2018-10-11T07:11:55.042Z,102528.42
2018-10-11T07:14:52.904Z,102530.14
2018-10-11T07:17:51.369Z,102525.63
2018-10-11T07:20:49.398Z,102532.36
2018-10-11T07:23:48.062Z,102528.32
2018-10-11T07:26:45.959Z,102526.03
2018-10-11T07:29:44.330Z,102539.95
2018-10-11T07:32:42.406Z,102534.47
2018-10-11T07:35:40.359Z,102543.52
2018-10-11T07:38:38.170Z,102553.30
2018-10-11T07:41:35.971Z,102533.59
2018-10-11T07:44:34.991Z,102542.54
2018-10-11T07:47:33.116Z,102542.94
2018-10-11T07:50:31.332Z,102539.78
2018-10-11T07:53:29.534Z,102538.44
2018-10-11T07:56:28.573Z,102534.78
2018-10-11T07:59:26.610Z,102539.22
2018-10-11T08:02:24.648Z,102535.55
2018-10-11T08:05:22.780Z,102532.39
2018-10-11T08:08:20.749Z,102532.39
2018-10-11T08:11:19.251Z,102527.41
2018-10-11T08:14:17.123Z,102527.78
2018-10-11T08:17:17.059Z,102537.70
2018-10-11T08:20:14.752Z,102539.41
2018-10-11T08:23:13.378Z,102541.63
2018-10-11T08:26:11.891Z,102535.69
2018-10-11T08:29:09.759Z,102542.91
2018-10-11T08:32:07.802Z,102535.69
2018-10-11T08:35:06.292Z,102544.63
2018-10-11T08:38:04.425Z,102544.16
2018-10-11T08:41:02.418Z,102546.38
2018-10-11T08:44:00.567Z,102550.41
2018-10-11T08:46:58.704Z,102556.66
2018-10-11T08:49:56.583Z,102553.97
2018-10-11T08:52:54.619Z,102560.70
2018-10-11T08:55:52.447Z,102558.48
2018-10-11T08:58:50.433Z,102554.34
2018-10-11T09:01:48.363Z,102549.44
2018-10-11T09:04:46.577Z,102546.75
2018-10-11T09:07:44.621Z,102550.78
2018-10-11T09:10:43.651Z,102551.18
2018-10-11T09:13:42.525Z,102559.72
2018-10-11T09:16:41.687Z,102561.94
2018-10-11T09:19:39.666Z,102555.22
2018-10-11T09:22:37.981Z,102544.45
2018-10-11T09:25:36.102Z,102546.67
2018-10-11T09:28:34.573Z,102551.08
2018-10-11T09:31:32.717Z,102547.55
2018-10-11T09:34:31.227Z,102543.52
2018-10-11T09:37:29.755Z,102541.20
2018-10-11T09:40:28.460Z,102537.63
2018-10-11T09:43:26.849Z,102538.50
2018-10-11T09:46:25.919Z,102536.69
2018-10-11T09:49:24.767Z,102550.03
2018-10-11T09:52:22.837Z,102551.02
2018-10-11T09:55:20.777Z,102549.67
2018-10-11T09:58:20.092Z,102555.92
2018-10-11T10:01:24.112Z,102551.38
2018-10-11T10:04:22.314Z,102559.45
2018-10-11T10:07:22.253Z,102557.16
2018-10-11T10:10:21.288Z,102553.13
2018-10-11T10:13:19.037Z,102551.78
2018-10-11T10:16:18.000Z,102554.47
2018-10-11T10:19:15.944Z,102548.63
2018-10-11T10:22:15.137Z,102541.42
2018-10-11T10:25:13.253Z,102547.65
2018-10-11T10:28:11.318Z,102543.61
2018-10-11T10:31:09.283Z,102549.40
2018-10-11T10:34:07.411Z,102539.51
2018-10-11T10:37:06.120Z,102536.42
2018-10-11T10:40:04.553Z,102527.41
2018-10-11T10:43:02.169Z,102524.24
2018-10-11T10:46:00.391Z,102526.06
2018-10-11T10:48:58.316Z,102529.16
2018-10-11T10:51:57.243Z,102522.42
2018-10-11T10:54:54.972Z,102528.75
2018-10-11T10:57:52.897Z,102523.77
2018-10-11T11:00:50.730Z,102519.73
2018-10-11T11:03:49.736Z,102518.39
2018-10-11T11:06:47.628Z,102518.39
2018-10-11T11:09:45.710Z,102510.80
2018-10-11T11:12:43.773Z,102514.36
2018-10-11T11:15:41.791Z,102519.73
2018-10-11T11:18:41.027Z,102517.89
2018-10-11T11:21:39.044Z,102517.05
2018-10-11T11:24:37.100Z,102516.17
2018-10-11T11:27:35.128Z,102520.20
2018-10-11T11:30:33.216Z,102522.02
2018-10-11T11:33:31.451Z,102520.68
2018-10-11T11:36:30.405Z,102513.95
2018-10-11T11:39:31.593Z,102515.30
2018-10-11T11:42:29.510Z,102515.37
2018-10-11T11:45:27.541Z,102518.94
2018-10-11T11:48:25.446Z,102507.30
2018-10-11T11:51:23.680Z,102511.33
2018-10-11T11:54:26.603Z,102506.83
2018-10-11T11:57:25.633Z,102506.83
2018-10-11T12:00:23.625Z,102502.42
2018-10-11T12:03:21.677Z,102497.05
2018-10-11T12:06:20.590Z,102497.88
2018-10-11T12:09:20.829Z,102492.50
2018-10-11T12:12:18.698Z,102505.11
2018-10-11T12:15:16.925Z,102507.80
2018-10-11T12:18:16.181Z,102511.84
2018-10-11T12:21:14.126Z,102505.11
2018-10-11T12:24:12.025Z,102507.30
2018-10-11T12:27:09.913Z,102509.05
2018-10-11T12:30:07.925Z,102505.95
2018-10-11T12:33:06.224Z,102505.48
2018-10-11T12:36:03.949Z,102511.73
2018-10-11T12:39:02.269Z,102500.10
2018-10-11T12:42:00.333Z,102500.50
2018-10-11T12:44:58.381Z,102503.20
2018-10-11T12:47:56.117Z,102498.28
2018-10-11T12:50:55.253Z,102497.81
2018-10-11T12:53:53.103Z,102494.25
2018-10-11T12:56:51.197Z,102493.78
2018-10-11T12:59:49.293Z,102493.30
2018-10-11T13:02:47.390Z,102489.27
2018-10-11T13:05:45.414Z,102488.40
2018-10-11T13:08:43.543Z,102478.98
2018-10-11T13:11:41.578Z,102484.36
2018-10-11T13:14:39.469Z,102480.80
2018-10-11T13:17:41.823Z,102479.92
2018-10-11T13:20:36.302Z,102479.92
2018-10-11T13:23:35.216Z,102471.86
2018-10-11T13:26:33.460Z,102472.83
2018-10-11T13:29:31.295Z,102464.77
2018-10-11T13:32:29.433Z,102466.48
2018-10-11T13:35:27.346Z,102458.04
2018-10-11T13:38:25.554Z,102452.66
2018-10-11T13:41:23.798Z,102451.31
2018-10-11T13:44:21.750Z,102443.72
2018-10-11T13:47:19.896Z,102443.72
2018-10-11T13:50:17.900Z,102448.22
2018-10-11T13:53:19.456Z,102445.12
2018-10-11T13:56:13.872Z,102448.33
2018-10-11T13:59:14.267Z,102440.73
2018-10-11T14:02:09.642Z,102444.30
2018-10-11T14:05:08.397Z,102443.42
2018-10-11T14:08:06.516Z,102435.35
2018-10-11T14:11:04.338Z,102440.73
2018-10-11T14:14:02.506Z,102436.30
2018-10-11T14:17:01.388Z,102440.33
2018-10-11T14:19:59.395Z,102442.55
2018-10-11T14:22:57.241Z,102443.02
2018-10-11T14:25:56.332Z,102441.30
2018-10-11T14:28:54.393Z,102431.89
2018-10-11T14:31:52.551Z,102434.95
2018-10-11T14:34:51.448Z,102435.92
2018-10-11T14:37:49.457Z,102432.73
2018-10-11T14:40:47.480Z,102431.89
2018-10-11T14:43:45.485Z,102425.64
2018-10-11T14:46:43.348Z,102430.55
2018-10-11T14:49:41.575Z,102433.23
2018-10-11T14:52:39.916Z,102427.86
2018-10-11T14:55:37.844Z,102424.66
2018-10-11T14:58:35.777Z,102423.42
2018-10-11T15:01:33.863Z,102418.91
2018-10-11T15:04:31.769Z,102416.70
2018-10-11T15:07:31.639Z,102408.63
2018-10-11T15:10:29.908Z,102411.72
2018-10-11T15:13:27.828Z,102409.97
2018-10-11T15:16:25.601Z,102409.09
2018-10-11T15:19:23.610Z,102413.13
2018-10-11T15:22:21.504Z,102405.06
2018-10-11T15:25:19.387Z,102407.86
2018-10-11T15:28:17.369Z,102404.70
2018-10-11T15:31:15.825Z,102399.31
2018-10-11T15:34:14.794Z,102393.94
2018-10-11T15:37:12.811Z,102375.59
2018-10-11T15:40:10.829Z,102377.88
2018-10-11T15:43:08.996Z,102370.68
2018-10-11T15:46:06.880Z,102377.51
2018-10-11T15:49:05.837Z,102376.63
2018-10-11T15:52:03.987Z,102370.38
2018-10-11T15:55:02.970Z,102362.31
2018-10-11T15:58:00.746Z,102368.16
2018-10-11T16:00:59.007Z,102365.95
2018-10-11T16:03:57.023Z,102356.53
2018-10-11T16:06:56.233Z,102353.48
2018-10-11T16:09:54.066Z,102357.98
2018-10-11T16:12:52.160Z,102359.80
2018-10-11T16:15:51.170Z,102358.93
2018-10-11T16:18:49.548Z,102360.75
2018-10-11T16:21:48.214Z,102355.87
2018-10-11T16:24:46.443Z,102353.19
2018-10-11T16:27:44.507Z,102351.91
2018-10-11T16:30:42.674Z,102338.09
2018-10-11T16:33:40.549Z,102336.75
2018-10-11T16:36:38.757Z,102338.47
2018-10-11T16:39:36.732Z,102331.84
2018-10-11T16:42:34.923Z,102339.45
2018-10-11T16:45:33.088Z,102334.06
2018-10-11T16:48:32.127Z,102331.37
2018-10-11T16:51:31.217Z,102330.50
2018-10-11T16:54:29.323Z,102323.31
2018-10-11T16:57:27.025Z,102328.69
2018-10-11T17:00:25.088Z,102329.53
2018-10-11T17:03:23.101Z,102328.69
2018-10-11T17:06:21.210Z,102331.37
2018-10-11T17:09:21.413Z,102328.18
2018-10-11T17:12:19.202Z,102330.03
2018-10-11T17:15:17.226Z,102334.44
2018-10-11T17:18:15.303Z,102325.49
2018-10-11T17:21:13.396Z,102329.05
2018-10-11T17:24:11.291Z,102323.67
2018-10-11T17:27:09.160Z,102327.70
2018-10-11T17:30:07.323Z,102326.37
2018-10-11T17:33:05.511Z,102321.46
2018-10-11T17:36:03.489Z,102310.23
2018-10-11T17:39:01.380Z,102312.92
2018-10-11T17:41:59.437Z,102317.06
2018-10-11T17:44:57.382Z,102321.97
2018-10-11T17:47:55.378Z,102332.22
2018-10-11T17:50:53.342Z,102326.94
2018-10-11T17:53:51.540Z,102331.84
2018-10-11T17:56:49.418Z,102322.44
2018-10-11T17:59:47.411Z,102322.91
2018-10-11T18:02:46.328Z,102328.69
2018-10-11T18:05:44.357Z,102333.67
2018-10-11T18:08:43.305Z,102344.82
2018-10-11T18:11:42.314Z,102337.23
2018-10-11T18:14:40.001Z,102341.63
2018-10-11T18:17:38.211Z,102336.75
2018-10-11T18:20:36.891Z,102334.54
2018-10-11T18:23:35.616Z,102334.06
2018-10-11T18:26:33.420Z,102348.86
2018-10-11T18:29:31.461Z,102351.14
2018-10-11T18:32:30.267Z,102353.36
2018-10-11T18:35:29.467Z,102348.45
2018-10-11T18:38:27.644Z,102348.45
2018-10-11T18:41:25.982Z,102348.92
2018-10-11T18:44:23.903Z,102350.74
2018-10-11T18:47:22.817Z,102351.61
2018-10-11T18:50:20.667Z,102362.84
2018-10-11T18:53:18.923Z,102356.13
2018-10-11T18:56:17.763Z,102360.16
2018-10-11T18:59:15.888Z,102361.13
2018-10-11T19:02:14.011Z,102354.41
2018-10-11T19:05:12.126Z,102349.50
2018-10-11T19:08:10.297Z,102351.72
2018-10-11T19:11:08.686Z,102348.05
2018-10-11T19:14:07.661Z,102355.75
2018-10-11T19:17:07.008Z,102357.47
2018-10-11T19:20:04.799Z,102351.61
2018-10-11T19:23:02.966Z,102343.08
2018-10-11T19:26:00.989Z,102349.80
2018-10-11T19:29:00.111Z,102348.45
2018-10-11T19:31:59.065Z,102344.89
2018-10-11T19:34:57.115Z,102343.55
2018-10-11T19:37:56.079Z,102334.54
2018-10-11T19:40:54.531Z,102339.05
2018-10-11T19:43:53.222Z,102337.23
2018-10-11T19:46:51.380Z,102334.54
2018-10-11T19:49:49.409Z,102337.23
2018-10-11T19:52:47.695Z,102340.78
2018-10-11T19:55:45.605Z,102349.80
2018-10-11T19:58:44.610Z,102357.87
2018-10-11T20:01:43.727Z,102347.52
2018-10-11T20:04:41.778Z,102349.33
2018-10-11T20:07:40.715Z,102346.64
2018-10-11T20:10:38.831Z,102357.39
2018-10-11T20:13:36.621Z,102354.23
2018-10-11T20:16:34.642Z,102360.95
2018-10-11T20:19:32.794Z,102368.16
2018-10-11T20:22:31.941Z,102374.00
2018-10-11T20:25:30.015Z,102378.91
2018-10-11T20:28:28.027Z,102372.66
2018-10-11T20:31:25.817Z,102368.16
2018-10-11T20:34:24.067Z,102365.94
2018-10-11T20:37:23.902Z,102366.80
2018-10-11T20:40:22.183Z,102362.37
2018-10-11T20:43:20.144Z,102354.78
2018-10-11T20:46:18.169Z,102350.74
2018-10-11T20:49:16.258Z,102354.30
2018-10-11T20:52:15.180Z,102357.47
2018-10-11T20:55:14.020Z,102360.55
2018-10-11T20:58:11.991Z,102363.25
2018-10-11T21:01:10.040Z,102353.44
2018-10-11T21:04:08.037Z,102354.78
2018-10-11T21:07:06.035Z,102345.37
2018-10-11T21:10:04.291Z,102343.66
2018-10-11T21:13:02.305Z,102334.24
2018-10-11T21:16:00.404Z,102337.41
2018-10-11T21:18:58.511Z,102331.92
2018-10-11T21:21:56.478Z,102326.94
2018-10-11T21:24:54.456Z,102318.00
2018-10-11T21:28:01.737Z,102318.41
2018-10-11T21:30:59.546Z,102312.55
2018-10-11T21:33:57.741Z,102305.33
2018-10-11T21:36:55.803Z,102296.31
2018-10-11T21:39:54.076Z,102288.72
2018-10-11T21:42:51.836Z,102282.87
2018-10-11T21:45:51.107Z,102281.05
2018-10-11T21:48:48.801Z,102281.92
2018-10-11T21:51:47.804Z,102279.23
2018-10-11T21:54:46.745Z,102270.66
2018-10-11T21:57:45.084Z,102262.12
2018-10-11T22:00:49.500Z,102260.41
2018-10-11T22:03:49.226Z,102260.78
2018-10-11T22:06:47.727Z,102268.48
2018-10-11T22:09:47.098Z,102270.66
2018-10-11T22:12:45.470Z,102270.66
2018-10-11T22:15:43.693Z,102270.30
2018-10-11T22:18:41.870Z,102273.35
2018-10-11T22:21:40.225Z,102273.86
2018-10-11T22:24:38.530Z,102270.66
2018-10-11T22:27:36.449Z,102264.15
2018-10-11T22:30:34.300Z,102274.69
2018-10-11T22:35:37.502Z,102266.91
2018-10-11T22:38:06.279Z,102261.64
2018-10-11T22:40:35.164Z,102257.97
2018-10-11T22:43:04.074Z,102248.48
2018-10-11T22:45:33.021Z,102247.44
2018-10-11T22:48:01.931Z,102241.08
2018-10-11T22:50:30.786Z,102237.44
2018-10-11T22:52:59.546Z,102235.99
2018-10-11T22:55:31.519Z,102232.83
2018-10-11T22:58:00.965Z,102232.83
2018-10-11T23:00:29.860Z,102240.82
2018-10-11T23:02:58.722Z,102241.69
2018-10-11T23:05:27.497Z,102228.80
2018-10-11T23:07:56.302Z,102229.48
2018-10-11T23:10:25.102Z,102229.95
2018-10-11T23:12:53.919Z,102228.61
2018-10-11T23:15:22.650Z,102233.05
2018-10-11T23:17:51.440Z,102239.30
2018-10-11T23:20:20.268Z,102237.95
2018-10-11T23:22:49.021Z,102228.03
2018-10-11T23:25:17.821Z,102221.70
2018-10-11T23:27:46.677Z,102215.45
2018-10-11T23:30:15.434Z,102213.63
2018-10-11T23:32:44.235Z,102208.66
2018-10-11T23:35:13.013Z,102205.45
2018-10-11T23:37:41.809Z,102203.64
2018-10-11T23:40:11.796Z,102193.36
2018-10-11T23:42:41.490Z,102185.20
2018-10-11T23:45:12.053Z,102189.24
2018-10-11T23:47:41.411Z,102186.92
2018-10-11T23:50:10.256Z,102186.92
2018-10-11T23:52:39.093Z,102190.00
2018-10-11T23:55:08.715Z,102191.34
2018-10-11T23:57:37.464Z,102190.00
